TimeMST,TemperatureF,Dew PointF,Humidity,Sea Level PressureIn,VisibilityMPH,Wind Direction,Wind SpeedMPH,Gust SpeedMPH,PrecipitationIn,Events,Conditions,WindDirDegrees,DateUTC
12:58 AM,50.4,37.6,62,29.81,10.0,East,18.4,-,N/A,,Overcast,100,2012-11-30 07:58:00
1:58 AM,50.0,37.2,62,29.77,10.0,ESE,17.3,-,N/A,,Scattered Clouds,110,2012-11-30 08:58:00
2:58 AM,50.4,37.6,62,29.76,10.0,East,19.6,-,N/A,,Mostly Cloudy,90,2012-11-30 09:58:00
3:58 AM,51.1,37.4,60,29.74,10.0,East,18.4,26.5,N/A,,Overcast,100,2012-11-30 10:58:00
4:58 AM,51.1,38.1,61,29.72,10.0,ESE,16.1,-,N/A,,Overcast,110,2012-11-30 11:58:00
5:58 AM,51.1,38.1,61,29.73,10.0,East,15.0,-,N/A,,Overcast,100,2012-11-30 12:58:00
6:38 AM,51.8,39.2,62,29.74,10.0,SE,12.7,-,N/A,,Overcast,130,2012-11-30 13:38:00
6:43 AM,51.8,39.2,62,29.74,10.0,SE,8.1,-,N/A,,Overcast,140,2012-11-30 13:43:00
6:58 AM,51.4,39.6,64,29.75,10.0,ESE,13.8,-,N/A,,Overcast,120,2012-11-30 13:58:00
7:58 AM,51.4,40.3,66,29.73,10.0,East,12.7,-,N/A,,Overcast,90,2012-11-30 14:58:00
8:58 AM,50.9,46.0,83,29.74,10.0,ESE,17.3,-,N/A,,Overcast,110,2012-11-30 15:58:00
9:28 AM,50.0,48.2,94,29.74,10.0,ESE,16.1,-,N/A,,Overcast,110,2012-11-30 16:28:00
9:58 AM,50.0,50.0,100,29.75,10.0,ESE,16.1,-,N/A,,Overcast,110,2012-11-30 16:58:00
10:58 AM,50.9,50.7,99,29.75,10.0,East,12.7,-,N/A,,Overcast,90,2012-11-30 17:58:00
11:50 AM,51.8,50.0,94,29.77,10.0,SSE,15.0,20.7,N/A,,Overcast,150,2012-11-30 18:50:00
11:51 AM,51.8,48.2,88,29.76,10.0,South,13.8,23.0,N/A,,Overcast,170,2012-11-30 18:51:00
11:52 AM,51.8,48.2,88,29.77,10.0,SSW,11.5,23.0,N/A,,Overcast,200,2012-11-30 18:52:00
11:57 AM,53.6,42.8,67,29.77,10.0,Variable,6.9,23.0,N/A,,Overcast,0,2012-11-30 18:57:00
11:58 AM,52.2,41.0,66,29.76,10.0,Variable,5.8,23.0,N/A,,Overcast,0,2012-11-30 18:58:00
12:03 PM,55.4,41.0,58,29.77,10.0,SE,10.4,-,N/A,,Overcast,140,2012-11-30 19:03:00
12:18 PM,57.2,39.2,51,29.76,10.0,SSW,15.0,20.7,N/A,,Overcast,200,2012-11-30 19:18:00
12:38 PM,55.4,39.2,54,29.75,10.0,SSW,9.2,18.4,N/A,,Overcast,200,2012-11-30 19:38:00
12:58 PM,55.9,39.2,53,29.73,10.0,SE,3.5,-,N/A,,Overcast,140,2012-11-30 19:58:00
1:33 PM,55.4,39.2,54,29.75,10.0,Variable,5.8,-,N/A,,Overcast,0,2012-11-30 20:33:00
1:58 PM,55.9,39.0,53,29.75,10.0,SW,6.9,-,N/A,,Overcast,220,2012-11-30 20:58:00
2:08 PM,55.4,39.2,54,29.76,10.0,SW,5.8,-,N/A,,Overcast,220,2012-11-30 21:08:00
2:23 PM,55.4,39.2,54,29.76,10.0,SSW,3.5,-,N/A,,Mostly Cloudy,200,2012-11-30 21:23:00
2:48 PM,55.4,39.2,54,29.76,10.0,South,11.5,-,N/A,,Mostly Cloudy,190,2012-11-30 21:48:00
2:58 PM,55.9,38.8,53,29.75,10.0,South,12.7,-,N/A,,Mostly Cloudy,180,2012-11-30 21:58:00
3:58 PM,55.2,39.6,56,29.73,10.0,South,11.5,-,N/A,,Scattered Clouds,190,2012-11-30 22:58:00
4:58 PM,53.4,39.6,59,29.76,10.0,South,12.7,-,N/A,,Overcast,190,2012-11-30 23:58:00
5:58 PM,52.9,39.7,61,29.79,10.0,SSW,10.4,-,0.00,Rain,Light Rain,200,2012-12-01 00:58:00
6:03 PM,51.8,41.0,67,29.80,10.0,SSW,12.7,-,N/A,Rain,Light Rain,200,2012-12-01 01:03:00
6:08 PM,51.8,41.0,67,29.80,10.0,SSW,10.4,-,N/A,,Light Drizzle,200,2012-12-01 01:08:00
6:13 PM,51.8,41.0,67,29.81,10.0,SSW,8.1,-,N/A,Rain,Light Rain,200,2012-12-01 01:13:00
6:33 PM,48.2,48.2,100,29.81,9.0,South,9.2,-,N/A,Rain,Light Rain,190,2012-12-01 01:33:00
6:38 PM,48.2,48.2,100,29.81,9.0,South,9.2,-,N/A,Rain,Light Rain,180,2012-12-01 01:38:00
6:43 PM,48.2,48.2,100,29.81,10.0,South,8.1,-,N/A,Rain,Light Rain,170,2012-12-01 01:43:00
6:48 PM,46.4,46.4,100,29.81,10.0,SSE,8.1,-,N/A,Rain,Light Rain,160,2012-12-01 01:48:00
6:53 PM,46.4,46.4,100,29.81,10.0,SSE,8.1,-,N/A,Rain,Light Rain,160,2012-12-01 01:53:00
6:58 PM,46.6,46.6,100,29.81,10.0,SE,8.1,-,0.02,Rain,Light Rain,140,2012-12-01 01:58:00
7:13 PM,46.4,46.4,100,29.82,9.0,SE,10.4,-,N/A,Rain,Light Rain,130,2012-12-01 02:13:00
7:18 PM,46.4,46.4,100,29.81,10.0,SE,10.4,-,N/A,Rain,Light Rain,130,2012-12-01 02:18:00
7:48 PM,44.6,44.6,100,29.81,10.0,SE,11.5,-,N/A,,Overcast,140,2012-12-01 02:48:00
7:58 PM,45.0,45.0,100,29.81,10.0,SE,11.5,-,0.03,,Overcast,130,2012-12-01 02:58:00
8:13 PM,44.6,44.6,100,29.82,10.0,SSE,12.7,-,N/A,,Mostly Cloudy,150,2012-12-01 03:13:00
8:43 PM,44.6,44.6,100,29.82,10.0,ESE,9.2,-,N/A,,Scattered Clouds,120,2012-12-01 03:43:00
8:58 PM,43.7,43.7,100,29.83,10.0,SE,11.5,-,N/A,,Partly Cloudy,140,2012-12-01 03:58:00
9:58 PM,43.0,43.0,100,29.85,10.0,ESE,8.1,-,N/A,,Clear,120,2012-12-01 04:58:00
10:58 PM,41.9,41.9,100,29.85,10.0,East,11.5,-,N/A,,Clear,80,2012-12-01 05:58:00
11:58 PM,45.5,45.5,100,29.86,10.0,East,8.1,-,N/A,,Clear,90,2012-12-01 06:58:00